createdAt,value
2022-12-27T00:01:29.446Z,2.50
2022-12-27T00:03:57.342Z,2.78
2022-12-27T00:06:26.029Z,2.70
2022-12-27T00:08:54.013Z,2.70
2022-12-27T00:11:24.214Z,2.70
2022-12-27T00:13:52.126Z,2.53
2022-12-27T00:16:20.981Z,2.70
2022-12-27T00:18:49.797Z,2.70
2022-12-27T00:21:18.195Z,2.60
2022-12-27T00:23:48.318Z,2.67
2022-12-27T00:26:17.722Z,2.70
2022-12-27T00:28:46.932Z,2.75
2022-12-27T00:31:14.890Z,2.67
2022-12-27T00:33:43.688Z,2.60
2022-12-27T00:36:15.835Z,2.85
2022-12-27T00:38:43.692Z,2.40
2022-12-27T00:41:11.557Z,2.38
2022-12-27T00:43:39.396Z,2.40
2022-12-27T00:46:08.841Z,2.55
2022-12-27T00:48:36.950Z,2.65
2022-12-27T00:51:05.977Z,2.63
2022-12-27T00:53:34.172Z,2.50
2022-12-27T00:56:02.165Z,2.40
2022-12-27T00:58:30.825Z,2.20
2022-12-27T01:01:06.034Z,2.80
2022-12-27T01:03:35.344Z,2.30
2022-12-27T01:06:06.553Z,2.70
2022-12-27T01:08:34.436Z,2.55
2022-12-27T01:11:02.404Z,2.45
2022-12-27T01:13:30.305Z,2.50
2022-12-27T01:15:58.251Z,2.25
2022-12-27T01:18:26.172Z,2.58
2022-12-27T01:20:55.391Z,2.50
2022-12-27T01:23:23.289Z,2.40
2022-12-27T01:25:51.162Z,2.63
2022-12-27T01:28:19.033Z,2.55
2022-12-27T01:30:46.893Z,2.45
2022-12-27T01:33:14.780Z,2.42
2022-12-27T01:35:42.694Z,2.67
2022-12-27T01:38:11.875Z,2.25
2022-12-27T01:40:39.746Z,2.38
2022-12-27T01:43:12.698Z,2.58
2022-12-27T01:45:40.590Z,2.20
2022-12-27T01:48:13.369Z,2.45
2022-12-27T01:50:43.170Z,2.33
2022-12-27T01:53:14.284Z,2.45
2022-12-27T01:55:44.099Z,2.20
2022-12-27T01:58:14.464Z,2.20
2022-12-27T02:00:43.918Z,2.58
2022-12-27T02:03:11.978Z,2.30
2022-12-27T02:05:41.771Z,2.30
2022-12-27T02:08:32.811Z,2.22
2022-12-27T02:11:00.674Z,2.35
2022-12-27T02:13:29.182Z,2.28
2022-12-27T02:15:57.061Z,2.40
2022-12-27T02:18:24.908Z,2.40
2022-12-27T02:21:10.589Z,2.40
2022-12-27T02:24:05.250Z,2.13
2022-12-27T02:26:52.363Z,2.20
2022-12-27T02:29:54.160Z,2.13
2022-12-27T02:32:25.432Z,2.03
2022-12-27T02:34:58.838Z,2.10
2022-12-27T02:37:28.315Z,2.30
2022-12-27T02:39:56.158Z,2.40
2022-12-27T02:42:41.828Z,2.15
2022-12-27T02:45:35.594Z,2.05
2022-12-27T02:48:21.153Z,2.30
2022-12-27T02:51:11.463Z,2.10
2022-12-27T02:53:45.162Z,2.00
2022-12-27T02:56:36.247Z,2.10
2022-12-27T02:59:11.729Z,2.15
2022-12-27T03:02:02.594Z,2.28
2022-12-27T03:04:40.276Z,2.20
2022-12-27T03:07:20.352Z,2.15
2022-12-27T03:10:20.684Z,2.13
2022-12-27T03:13:08.643Z,2.00
2022-12-27T03:15:58.686Z,2.03
2022-12-27T03:18:34.611Z,2.10
2022-12-27T03:21:31.619Z,2.10
2022-12-27T03:24:17.188Z,2.15
2022-12-27T03:26:46.717Z,2.30
2022-12-27T03:29:32.621Z,2.17
2022-12-27T03:32:19.580Z,1.90
2022-12-27T03:34:53.541Z,2.00
2022-12-27T03:37:41.264Z,2.05
2022-12-27T03:40:11.763Z,2.17
2022-12-27T03:42:58.424Z,2.00
2022-12-27T03:45:46.289Z,1.90
2022-12-27T03:48:14.239Z,1.92
2022-12-27T03:50:45.702Z,1.95
2022-12-27T03:53:16.113Z,2.03
2022-12-27T03:55:44.024Z,2.10
2022-12-27T03:58:11.912Z,1.90
2022-12-27T04:00:40.392Z,1.92
2022-12-27T04:03:08.327Z,1.98
2022-12-27T04:05:36.227Z,1.83
2022-12-27T04:08:23.488Z,1.80
2022-12-27T04:11:09.188Z,1.80
2022-12-27T04:13:54.369Z,1.90
2022-12-27T04:16:39.918Z,1.90
2022-12-27T04:19:25.550Z,1.70
2022-12-27T04:22:11.432Z,2.00
2022-12-27T04:24:58.382Z,1.77
2022-12-27T04:27:43.892Z,1.70
2022-12-27T04:30:30.141Z,1.80
2022-12-27T04:33:15.718Z,1.77
2022-12-27T04:35:43.568Z,1.75
2022-12-27T04:38:11.420Z,1.77
2022-12-27T04:40:58.312Z,1.90
2022-12-27T04:43:43.664Z,1.90
2022-12-27T04:46:30.246Z,1.70
2022-12-27T04:49:15.643Z,1.70
2022-12-27T04:52:01.265Z,1.75
2022-12-27T04:54:46.625Z,1.60
2022-12-27T04:57:15.842Z,1.73
2022-12-27T05:00:03.758Z,1.48
2022-12-27T05:02:31.754Z,1.70
2022-12-27T05:04:59.773Z,1.73
2022-12-27T05:07:45.020Z,1.70
2022-12-27T05:10:30.724Z,1.60
2022-12-27T05:13:17.738Z,1.42
2022-12-27T05:15:45.694Z,1.52
2022-12-27T05:18:13.637Z,1.73
2022-12-27T05:20:41.471Z,1.50
2022-12-27T05:23:27.883Z,1.70
2022-12-27T05:25:55.871Z,1.50
2022-12-27T05:28:25.053Z,1.60
2022-12-27T05:30:53.018Z,1.33
2022-12-27T05:33:20.852Z,1.40
2022-12-27T05:35:48.761Z,1.77
2022-12-27T05:38:16.662Z,1.48
2022-12-27T05:40:44.605Z,1.58
2022-12-27T05:43:12.468Z,1.63
2022-12-27T05:45:41.679Z,1.77
2022-12-27T05:48:09.566Z,1.50
2022-12-27T05:50:37.428Z,1.40
2022-12-27T05:53:11.383Z,1.55
2022-12-27T05:55:39.454Z,1.33
2022-12-27T05:58:07.706Z,1.38
2022-12-27T06:00:35.598Z,1.45
2022-12-27T06:03:05.005Z,1.50
2022-12-27T06:05:32.965Z,1.20
2022-12-27T06:08:00.828Z,1.50
2022-12-27T06:10:28.707Z,1.40
2022-12-27T06:12:56.596Z,1.30
2022-12-27T06:15:24.471Z,1.40
2022-12-27T06:17:52.309Z,1.23
2022-12-27T06:20:21.585Z,1.30
2022-12-27T06:22:49.477Z,1.40
2022-12-27T06:25:17.453Z,1.35
2022-12-27T06:27:45.868Z,1.33
2022-12-27T06:30:15.389Z,1.40
2022-12-27T06:32:43.283Z,1.48
2022-12-27T06:35:11.726Z,1.48
2022-12-27T06:37:42.033Z,1.58
2022-12-27T06:40:11.189Z,1.40
2022-12-27T06:42:39.116Z,1.40
2022-12-27T06:45:09.427Z,1.33
2022-12-27T06:47:37.430Z,1.35
2022-12-27T06:50:05.820Z,1.50
2022-12-27T06:52:33.733Z,1.30
2022-12-27T06:55:02.972Z,1.45
2022-12-27T06:57:30.864Z,1.30
2022-12-27T06:59:58.761Z,1.20
2022-12-27T07:02:26.790Z,1.20
2022-12-27T07:04:54.755Z,1.30
2022-12-27T07:07:22.638Z,1.40
2022-12-27T07:09:51.828Z,1.25
2022-12-27T07:12:21.020Z,1.20
2022-12-27T07:14:48.865Z,1.52
2022-12-27T07:17:16.744Z,1.30
2022-12-27T07:19:44.617Z,1.30
2022-12-27T07:22:12.598Z,1.17
2022-12-27T07:24:40.459Z,1.20
2022-12-27T07:27:08.514Z,1.20
2022-12-27T07:29:43.513Z,1.27
2022-12-27T07:32:13.335Z,1.17
2022-12-27T07:34:42.972Z,1.10
2022-12-27T07:37:10.885Z,1.45
2022-12-27T07:39:38.742Z,1.27
2022-12-27T07:42:08.644Z,1.10
2022-12-27T07:44:40.048Z,1.20
2022-12-27T07:47:08.591Z,1.23
2022-12-27T07:49:36.477Z,1.15
2022-12-27T07:52:04.506Z,1.35
2022-12-27T07:54:32.569Z,1.30
2022-12-27T07:57:00.467Z,1.23
2022-12-27T07:59:28.436Z,1.33
2022-12-27T08:02:06.706Z,1.25
2022-12-27T08:04:35.520Z,1.20
2022-12-27T08:07:05.688Z,1.15
2022-12-27T08:09:35.147Z,1.33
2022-12-27T08:12:03.055Z,1.10
2022-12-27T08:14:30.972Z,1.10
2022-12-27T08:17:03.773Z,1.30
2022-12-27T08:19:31.698Z,1.20
2022-12-27T08:21:59.646Z,1.05
2022-12-27T08:24:27.538Z,1.30
2022-12-27T08:26:55.563Z,1.30
2022-12-27T08:29:23.473Z,1.20
2022-12-27T08:31:51.393Z,1.00
2022-12-27T08:34:20.837Z,1.20
2022-12-27T08:36:56.002Z,1.10
2022-12-27T08:39:24.268Z,1.10
2022-12-27T08:41:53.468Z,1.13
2022-12-27T08:44:21.349Z,1.13
2022-12-27T08:46:49.302Z,1.17
2022-12-27T08:49:17.151Z,1.20
2022-12-27T08:51:46.395Z,1.05
2022-12-27T08:54:14.309Z,1.00
2022-12-27T08:56:42.169Z,1.23
2022-12-27T08:59:10.082Z,1.13
2022-12-27T09:01:38.033Z,1.20
2022-12-27T09:04:06.215Z,1.10
2022-12-27T09:06:34.127Z,0.90
2022-12-27T09:09:03.355Z,1.20
2022-12-27T09:11:32.149Z,1.20
2022-12-27T09:14:00.861Z,0.85
2022-12-27T09:16:29.073Z,1.05
2022-12-27T09:18:57.660Z,1.02
2022-12-27T09:21:26.374Z,1.20
2022-12-27T09:23:54.294Z,1.00
2022-12-27T09:26:24.284Z,1.00
2022-12-27T09:28:52.220Z,1.10
2022-12-27T09:31:20.841Z,1.20
2022-12-27T09:33:48.839Z,1.10
2022-12-27T09:36:17.516Z,1.00
2022-12-27T09:38:45.766Z,1.15
2022-12-27T09:41:51.588Z,1.02
2022-12-27T09:44:09.520Z,1.10
2022-12-27T09:46:40.393Z,1.23
2022-12-27T09:49:10.160Z,1.10
2022-12-27T09:51:44.414Z,1.00
2022-12-27T09:54:14.386Z,1.00
2022-12-27T09:57:09.992Z,1.20
2022-12-27T09:59:33.228Z,1.13
2022-12-27T10:02:01.226Z,1.10
2022-12-27T10:04:45.483Z,1.15
2022-12-27T10:07:19.934Z,1.02
2022-12-27T10:09:55.845Z,1.10
2022-12-27T10:12:33.668Z,1.10
2022-12-27T10:15:12.472Z,1.10
2022-12-27T10:17:52.837Z,1.10
2022-12-27T10:20:24.966Z,1.20
2022-12-27T10:22:53.948Z,1.30
2022-12-27T10:25:23.359Z,1.15
2022-12-27T10:27:51.743Z,1.10
2022-12-27T10:30:22.470Z,1.20
2022-12-27T10:32:50.486Z,1.20
2022-12-27T10:35:19.215Z,1.20
2022-12-27T10:37:47.493Z,1.00
2022-12-27T10:40:17.784Z,1.10
2022-12-27T10:42:48.435Z,1.20
2022-12-27T10:45:33.301Z,1.20
2022-12-27T10:48:13.794Z,1.02
2022-12-27T10:50:44.340Z,1.13
2022-12-27T10:53:31.510Z,0.82
2022-12-27T10:56:14.113Z,1.10
2022-12-27T10:58:43.707Z,1.17
2022-12-27T11:01:20.564Z,1.10
2022-12-27T11:03:48.500Z,1.00
2022-12-27T11:06:22.191Z,1.20
2022-12-27T11:08:50.125Z,1.08
2022-12-27T11:11:20.240Z,1.20
2022-12-27T11:13:48.804Z,1.20
2022-12-27T11:16:20.795Z,1.13
2022-12-27T11:18:50.260Z,1.13
2022-12-27T11:21:27.272Z,1.08
2022-12-27T11:23:57.612Z,0.98
2022-12-27T11:26:26.350Z,1.20
2022-12-27T11:28:55.134Z,1.08
2022-12-27T11:31:35.452Z,1.00
2022-12-27T11:34:05.322Z,1.13
2022-12-27T11:36:34.151Z,1.20
2022-12-27T11:39:02.419Z,0.90
2022-12-27T11:41:34.732Z,1.17
2022-12-27T11:44:05.307Z,1.10
2022-12-27T11:46:38.351Z,1.20
2022-12-27T11:49:07.292Z,1.10
2022-12-27T11:52:07.928Z,1.10
2022-12-27T11:55:18.481Z,1.20
2022-12-27T11:58:23.249Z,1.10
2022-12-27T12:00:55.622Z,1.20
2022-12-27T12:03:57.468Z,1.00
2022-12-27T12:06:34.130Z,1.00
2022-12-27T12:09:14.300Z,1.13
2022-12-27T12:11:55.390Z,1.15
2022-12-27T12:14:41.191Z,1.27
2022-12-27T12:17:16.656Z,1.13
2022-12-27T12:20:13.063Z,1.10
2022-12-27T12:22:46.700Z,1.25
2022-12-27T12:25:31.125Z,1.00
2022-12-27T12:28:38.529Z,1.20
2022-12-27T12:31:03.908Z,1.13
2022-12-27T12:33:55.569Z,1.20
2022-12-27T12:36:52.241Z,0.98
2022-12-27T12:39:24.379Z,1.10
2022-12-27T12:41:59.600Z,1.20
2022-12-27T12:44:43.751Z,1.17
2022-12-27T12:47:19.942Z,1.00
2022-12-27T12:49:57.724Z,1.10
2022-12-27T12:52:35.687Z,1.10
2022-12-27T12:55:24.061Z,0.95
2022-12-27T12:57:57.334Z,1.13
2022-12-27T13:00:30.795Z,1.30
2022-12-27T13:03:34.472Z,1.10
2022-12-27T13:06:09.325Z,1.10
2022-12-27T13:08:42.430Z,1.20
2022-12-27T13:11:26.385Z,0.90
2022-12-27T13:14:03.163Z,1.20
2022-12-27T13:16:37.946Z,1.10
2022-12-27T13:19:12.981Z,1.10
2022-12-27T13:21:49.051Z,1.10
2022-12-27T13:24:29.560Z,1.00
2022-12-27T13:27:01.296Z,1.10
2022-12-27T13:29:35.807Z,1.20
2022-12-27T13:32:07.588Z,1.20
2022-12-27T13:34:40.328Z,1.33
2022-12-27T13:37:19.040Z,1.10
2022-12-27T13:40:14.161Z,1.30
2022-12-27T13:42:52.109Z,1.00
2022-12-27T13:45:46.342Z,1.15
2022-12-27T13:48:24.094Z,1.20
2022-12-27T13:51:05.058Z,1.27
2022-12-27T13:53:58.628Z,1.10
2022-12-27T13:59:54.081Z,1.00
2022-12-27T14:02:49.973Z,1.20
2022-12-27T14:05:56.945Z,1.20
2022-12-27T14:08:28.688Z,1.30
2022-12-27T14:11:01.108Z,1.10
2022-12-27T14:13:33.975Z,1.33
2022-12-27T14:16:35.352Z,1.10
2022-12-27T14:19:11.390Z,1.20
2022-12-27T14:21:58.735Z,1.20
2022-12-27T14:25:17.467Z,1.20
2022-12-27T14:28:07.719Z,1.05
2022-12-27T14:31:00.333Z,1.13
2022-12-27T14:34:07.523Z,1.00
2022-12-27T14:37:03.618Z,1.20
2022-12-27T14:39:57.683Z,1.20
2022-12-27T14:43:02.738Z,1.10
2022-12-27T14:46:20.823Z,1.20
2022-12-27T14:49:19.347Z,1.25
2022-12-27T14:52:12.838Z,1.20
2022-12-27T14:55:04.450Z,1.10
2022-12-27T14:57:35.395Z,1.30
2022-12-27T15:00:05.678Z,1.33
2022-12-27T15:03:01.562Z,1.15
2022-12-27T15:05:41.668Z,1.30
2022-12-27T15:08:21.719Z,1.20
2022-12-27T15:10:59.465Z,1.30
2022-12-27T15:13:34.667Z,1.10
2022-12-27T15:16:10.148Z,1.27
2022-12-27T15:19:01.796Z,1.40
2022-12-27T15:21:42.038Z,1.23
2022-12-27T15:24:14.387Z,1.25
2022-12-27T15:26:46.748Z,1.00
2022-12-27T15:29:22.332Z,1.10
2022-12-27T15:31:56.901Z,1.20
2022-12-27T15:34:35.987Z,1.13
2022-12-27T15:37:05.225Z,1.10
2022-12-27T15:39:49.237Z,1.27
2022-12-27T15:42:48.180Z,1.30
2022-12-27T15:45:25.034Z,1.10
2022-12-27T15:48:11.537Z,1.10
2022-12-27T15:50:49.207Z,1.30
2022-12-27T15:53:43.882Z,1.27
2022-12-27T15:56:26.586Z,1.20
2022-12-27T15:59:48.691Z,1.23
2022-12-27T16:02:24.825Z,1.30
2022-12-27T16:04:53.888Z,1.38
2022-12-27T16:07:43.700Z,1.25
2022-12-27T16:10:31.900Z,1.20
2022-12-27T16:13:00.451Z,1.27
2022-12-27T16:15:51.935Z,1.20
2022-12-27T16:18:41.309Z,1.30
2022-12-27T16:21:12.116Z,1.50
2022-12-27T16:23:48.926Z,1.50
2022-12-27T16:26:19.628Z,1.50
2022-12-27T16:28:53.426Z,1.40
2022-12-27T16:31:21.937Z,1.30
2022-12-27T16:33:49.954Z,1.45
2022-12-27T16:36:36.755Z,1.42
2022-12-27T16:39:25.410Z,1.42
2022-12-27T16:42:03.924Z,1.42
2022-12-27T16:44:53.848Z,1.30
2022-12-27T16:47:55.647Z,1.38
2022-12-27T16:50:40.907Z,1.40
2022-12-27T16:53:18.640Z,1.48
2022-12-27T16:56:19.833Z,1.30
2022-12-27T16:58:48.316Z,1.27
2022-12-27T17:02:01.233Z,1.42
2022-12-27T17:04:54.523Z,1.48
2022-12-27T17:07:45.389Z,1.30
2022-12-27T17:10:41.849Z,1.38
2022-12-27T17:13:14.245Z,1.50
2022-12-27T17:15:49.526Z,1.30
2022-12-27T17:18:25.506Z,1.30
2022-12-27T17:21:00.217Z,1.23
2022-12-27T17:23:28.053Z,1.55
2022-12-27T17:26:03.685Z,1.40
2022-12-27T17:28:33.993Z,1.38
2022-12-27T17:31:03.546Z,1.45
2022-12-27T17:33:39.899Z,1.50
2022-12-27T17:36:18.422Z,1.40
2022-12-27T17:38:56.414Z,1.45
2022-12-27T17:41:45.564Z,1.30
2022-12-27T17:44:36.086Z,1.30
2022-12-27T17:47:25.635Z,1.48
2022-12-27T17:49:53.906Z,1.50
2022-12-27T17:52:41.928Z,1.33
2022-12-27T17:55:34.994Z,1.48
2022-12-27T17:58:04.459Z,1.65
2022-12-27T18:00:34.537Z,1.70
2022-12-27T18:03:03.677Z,1.38
2022-12-27T18:05:32.343Z,1.40
2022-12-27T18:08:01.968Z,1.30
2022-12-27T18:10:30.141Z,1.45
2022-12-27T18:12:58.825Z,1.30
2022-12-27T18:15:27.342Z,1.58
2022-12-27T18:17:58.581Z,1.35
2022-12-27T18:20:34.574Z,1.70
2022-12-27T18:23:14.592Z,1.50
2022-12-27T18:25:51.298Z,1.50
2022-12-27T18:28:20.040Z,1.30
2022-12-27T18:30:48.918Z,1.50
2022-12-27T18:33:18.316Z,1.60
2022-12-27T18:35:47.889Z,1.42
2022-12-27T18:38:18.032Z,1.70
2022-12-27T18:40:45.910Z,1.40
2022-12-27T18:43:15.567Z,1.50
2022-12-27T18:45:44.033Z,1.50
2022-12-27T18:48:12.881Z,1.50
2022-12-27T18:50:42.086Z,1.60
2022-12-27T18:53:24.345Z,1.77
2022-12-27T18:55:59.280Z,1.50
2022-12-27T18:58:27.248Z,1.77
2022-12-27T19:00:58.961Z,1.60
2022-12-27T19:03:27.478Z,1.70
2022-12-27T19:06:05.137Z,1.48
2022-12-27T19:08:35.473Z,1.67
2022-12-27T19:11:03.333Z,1.40
2022-12-27T19:13:32.692Z,1.58
2022-12-27T19:16:00.638Z,1.50
2022-12-27T19:18:30.074Z,1.48
2022-12-27T19:20:59.095Z,1.80
2022-12-27T19:23:33.155Z,1.67
2022-12-27T19:26:07.562Z,1.40
2022-12-27T19:28:36.308Z,1.60
2022-12-27T19:31:18.305Z,1.85
2022-12-27T19:33:48.234Z,1.67
2022-12-27T19:36:16.171Z,1.60
2022-12-27T19:38:47.963Z,1.52
2022-12-27T19:41:16.303Z,1.60
2022-12-27T19:43:45.323Z,1.50
2022-12-27T19:46:13.790Z,1.50
2022-12-27T19:48:41.905Z,1.60
2022-12-27T19:51:11.086Z,1.50
2022-12-27T19:53:39.382Z,1.55
2022-12-27T19:56:09.739Z,1.52
2022-12-27T19:58:37.589Z,1.50
2022-12-27T20:01:05.707Z,1.60
2022-12-27T20:03:33.585Z,1.50
2022-12-27T20:06:14.731Z,1.42
2022-12-27T20:08:47.489Z,1.52
2022-12-27T20:11:18.748Z,1.83
2022-12-27T20:13:46.713Z,1.70
2022-12-27T20:16:15.376Z,1.60
2022-12-27T20:18:43.449Z,1.55
2022-12-27T20:21:13.085Z,1.45
2022-12-27T20:23:40.959Z,1.45
2022-12-27T20:26:09.234Z,1.50
2022-12-27T20:28:38.503Z,1.67
2022-12-27T20:31:07.374Z,1.50
2022-12-27T20:33:35.468Z,1.60
2022-12-27T20:36:03.417Z,1.60
2022-12-27T20:38:31.273Z,1.50
2022-12-27T20:41:05.875Z,1.50
2022-12-27T20:43:33.854Z,1.50
2022-12-27T20:46:06.631Z,1.38
2022-12-27T20:48:34.647Z,1.60
2022-12-27T20:51:07.240Z,1.52
2022-12-27T20:53:35.128Z,1.70
2022-12-27T20:56:03.036Z,1.63
2022-12-27T20:58:31.585Z,1.70
2022-12-27T21:00:59.586Z,1.58
2022-12-27T21:03:28.928Z,1.98
2022-12-27T21:05:56.797Z,1.67
2022-12-27T21:08:24.672Z,1.60
2022-12-27T21:10:52.557Z,1.75
2022-12-27T21:13:20.949Z,1.75
2022-12-27T21:15:48.836Z,1.63
2022-12-27T21:18:16.721Z,1.70
2022-12-27T21:20:45.913Z,1.70
2022-12-27T21:23:13.785Z,1.90
2022-12-27T21:25:41.705Z,1.80
2022-12-27T21:28:09.567Z,1.88
2022-12-27T21:30:37.459Z,1.60
2022-12-27T21:33:05.546Z,1.90
2022-12-27T21:35:33.435Z,1.67
2022-12-27T21:38:02.708Z,1.40
2022-12-27T21:40:30.592Z,1.63
2022-12-27T21:42:58.468Z,1.83
2022-12-27T21:45:26.408Z,2.08
2022-12-27T21:47:54.271Z,1.70
2022-12-27T21:50:22.158Z,1.90
2022-12-27T21:52:50.031Z,1.80
2022-12-27T21:55:19.229Z,1.77
2022-12-27T21:57:47.120Z,1.83
2022-12-27T22:00:15.744Z,1.63
2022-12-27T22:02:43.772Z,2.08
2022-12-27T22:05:11.709Z,1.42
2022-12-27T22:07:39.590Z,1.80
2022-12-27T22:10:08.113Z,1.98
2022-12-27T22:12:37.413Z,1.60
2022-12-27T22:15:05.906Z,1.58
2022-12-27T22:17:33.810Z,1.80
2022-12-27T22:20:01.708Z,1.80
2022-12-27T22:22:29.661Z,1.83
2022-12-27T22:24:57.570Z,1.55
2022-12-27T22:27:25.476Z,1.70
2022-12-27T22:29:54.693Z,1.83
2022-12-27T22:32:22.724Z,1.92
2022-12-27T22:34:50.636Z,1.60
2022-12-27T22:37:18.505Z,1.77
2022-12-27T22:39:46.367Z,1.85
2022-12-27T22:42:14.211Z,1.90
2022-12-27T22:44:43.693Z,1.70
2022-12-27T22:47:26.396Z,1.90
2022-12-27T22:49:55.444Z,2.10
2022-12-27T22:52:23.310Z,1.83
2022-12-27T22:55:04.259Z,1.98
2022-12-27T22:57:34.825Z,1.60
2022-12-27T23:00:02.851Z,1.80
2022-12-27T23:02:32.144Z,1.90
2022-12-27T23:05:00.090Z,1.85
2022-12-27T23:08:05.616Z,2.00
2022-12-27T23:10:15.914Z,1.90
2022-12-27T23:12:43.787Z,1.88
2022-12-27T23:15:12.226Z,1.83
2022-12-27T23:17:41.489Z,2.13
2022-12-27T23:20:10.925Z,2.13
2022-12-27T23:22:38.834Z,2.30
2022-12-27T23:25:06.947Z,1.95
2022-12-27T23:27:34.846Z,1.77
2022-12-27T23:30:02.734Z,1.95
2022-12-27T23:32:30.605Z,1.80
2022-12-27T23:34:59.838Z,2.13
2022-12-27T23:37:27.717Z,1.98
2022-12-27T23:39:55.562Z,2.15
2022-12-27T23:42:23.427Z,1.90
2022-12-27T23:44:52.118Z,1.90
2022-12-27T23:47:19.995Z,2.30
2022-12-27T23:49:47.872Z,1.70
2022-12-27T23:52:18.471Z,1.90
2022-12-27T23:54:46.378Z,1.98
2022-12-27T23:57:20.606Z,2.00
2022-12-27T23:59:51.609Z,2.30
